Time;durP1;ratioP1;P1;durP2;ratioP2;P2;SDS_P1;SDS_P2;PMS_P1;PMS_P2;Temp;Humidity;BMP_temperature;BMP_pressure;BME280_temperature;BME280_humidity;BME280_pressure;Samples;Min_cycle;Max_cycle;Signal;HPM_P1;HPM_P2
2021/03/26 00:02:02;;;;;;;17.65;10.80;;;22.60;35.20;;;;;;5031997;28;20036;-75
2021/03/26 00:04:34;;;;;;;20.63;12.90;;;22.50;35.20;;;;;;5034764;28;20113;-75
2021/03/26 00:06:59;;;;;;;17.45;12.02;;;22.50;35.20;;;;;;5069411;28;20110;-75
2021/03/26 00:09:27;;;;;;;15.25;10.15;;;22.50;35.30;;;;;;5046604;28;20468;-75
2021/03/26 00:11:55;;;;;;;17.70;11.55;;;22.50;35.30;;;;;;5040491;28;20101;-75
2021/03/26 00:14:20;;;;;;;19.30;12.05;;;22.50;35.30;;;;;;5038386;28;20043;-75
2021/03/26 00:16:46;;;;;;;17.83;11.43;;;22.40;35.30;;;;;;5060491;28;20033;-75
2021/03/26 00:19:11;;;;;;;19.70;11.98;;;22.50;35.40;;;;;;5046262;28;20515;-74
2021/03/26 00:21:40;;;;;;;20.45;12.02;;;22.40;35.40;;;;;;5080184;28;20107;-75
2021/03/26 00:24:06;;;;;;;18.92;11.88;;;22.40;35.30;;;;;;5059288;28;20042;-75
2021/03/26 00:26:32;;;;;;;15.38;10.32;;;22.50;35.40;;;;;;5074135;28;20037;-75
2021/03/26 00:28:57;;;;;;;22.77;12.80;;;22.40;35.30;;;;;;5072663;28;20032;-75
2021/03/26 00:31:23;;;;;;;17.98;10.68;;;22.40;35.30;;;;;;5071327;28;20051;-75
2021/03/26 00:33:49;;;;;;;20.52;11.68;;;22.40;35.30;;;;;;5067030;28;20060;-74
2021/03/26 00:36:14;;;;;;;20.20;11.75;;;22.40;35.30;;;;;;5042711;28;20039;-74
2021/03/26 00:38:40;;;;;;;18.00;11.95;;;22.40;35.20;;;;;;5058689;28;20467;-74
2021/03/26 00:41:05;;;;;;;18.67;10.80;;;22.40;35.20;;;;;;5071273;28;20543;-74
2021/03/26 00:43:31;;;;;;;20.17;12.10;;;22.40;35.20;;;;;;5056166;28;20044;-75
2021/03/26 00:45:57;;;;;;;17.77;10.32;;;22.40;35.10;;;;;;5049012;28;20526;-75
2021/03/26 00:48:23;;;;;;;19.05;11.05;;;22.40;35.10;;;;;;5069305;28;20051;-75
2021/03/26 00:50:51;;;;;;;21.00;11.13;;;22.40;35.10;;;;;;5076091;28;20463;-75
2021/03/26 00:53:25;;;;;;;18.83;11.77;;;22.40;35.20;;;;;;5051242;28;20392;-75
2021/03/26 00:55:51;;;;;;;18.83;11.40;;;22.40;35.20;;;;;;5074577;28;20564;-75
2021/03/26 00:58:17;;;;;;;19.50;12.57;;;22.40;35.20;;;;;;5093114;28;20027;-75
2021/03/26 01:00:42;;;;;;;19.90;10.75;;;22.40;35.20;;;;;;5074187;28;20093;-75
2021/03/26 01:03:09;;;;;;;17.42;11.63;;;22.30;35.20;;;;;;5075348;28;20047;-75
2021/03/26 01:05:40;;;;;;;19.83;11.90;;;22.30;35.20;;;;;;5075061;28;20028;-75
2021/03/26 01:08:06;;;;;;;19.20;11.65;;;22.40;35.30;;;;;;5066104;28;20024;-75
2021/03/26 01:10:34;;;;;;;15.15;9.18;;;22.30;35.20;;;;;;5073383;28;20387;-75
2021/03/26 01:13:00;;;;;;;18.63;11.98;;;22.30;35.20;;;;;;5093415;28;20028;-74
2021/03/26 01:15:26;;;;;;;18.27;11.80;;;22.30;35.30;;;;;;5076159;28;20036;-75
2021/03/26 01:17:53;;;;;;;19.77;12.35;;;22.30;35.30;;;;;;5070092;28;20013;-74
2021/03/26 01:20:22;;;;;;;18.80;12.38;;;22.30;35.30;;;;;;5066133;28;20028;-74
2021/03/26 01:22:47;;;;;;;17.80;9.60;;;22.30;35.30;;;;;;5078120;28;20020;-74
2021/03/26 01:25:22;;;;;;;18.98;11.65;;;22.30;35.30;;;;;;5091834;28;20377;-73
2021/03/26 01:27:47;;;;;;;15.85;11.60;;;22.30;35.40;;;;;;5070246;28;20443;-74
2021/03/26 01:30:14;;;;;;;17.50;11.30;;;22.30;35.40;;;;;;5072548;28;20112;-74
2021/03/26 01:32:42;;;;;;;19.73;12.43;;;22.20;35.40;;;;;;5062583;28;20043;-74
2021/03/26 01:35:09;;;;;;;17.42;10.98;;;22.20;35.40;;;;;;5092716;28;20107;-74
2021/03/26 01:37:34;;;;;;;16.17;10.50;;;22.20;35.40;;;;;;5071718;28;20021;-75
2021/03/26 01:40:00;;;;;;;21.17;12.60;;;22.20;35.40;;;;;;5071144;28;20040;-74
2021/03/26 01:42:29;;;;;;;15.50;10.07;;;22.20;36.10;;;;;;5074473;28;20047;-74
2021/03/26 01:44:54;;;;;;;20.58;12.45;;;22.20;35.40;;;;;;5075459;28;20028;-75
2021/03/26 01:47:20;;;;;;;17.08;11.68;;;22.20;35.40;;;;;;5072939;28;20027;-74
2021/03/26 01:49:45;;;;;;;19.73;11.40;;;22.10;35.40;;;;;;5074517;28;20420;-74
2021/03/26 01:52:11;;;;;;;16.38;11.10;;;22.10;35.40;;;;;;5092842;28;20028;-75
2021/03/26 01:54:36;;;;;;;17.83;9.82;;;22.10;35.40;;;;;;5074108;28;20040;-75
2021/03/26 01:57:02;;;;;;;18.25;10.32;;;22.10;35.40;;;;;;5074210;28;20027;-76
2021/03/26 01:59:28;;;;;;;16.88;9.95;;;22.10;35.40;;;;;;5049314;28;20456;-75
2021/03/26 02:02:08;;;;;;;19.92;10.93;;;22.10;35.40;;;;;;5074368;28;20028;-76
2021/03/26 02:04:36;;;;;;;18.25;11.85;;;22.10;35.40;;;;;;5071255;28;20031;-74
2021/03/26 02:07:01;;;;;;;15.70;9.68;;;22.00;36.10;;;;;;5048780;28;20107;-74
2021/03/26 02:09:29;;;;;;;18.60;11.32;;;22.00;35.40;;;;;;5057250;28;20189;-75
2021/03/26 02:12:17;;;;;;;18.80;10.45;;;22.00;35.40;;;;;;5074869;28;20065;-75
2021/03/26 02:14:46;;;;;;;19.50;11.35;;;22.00;35.50;;;;;;5074134;28;20036;-75
2021/03/26 02:17:16;;;;;;;16.40;11.10;;;22.00;35.50;;;;;;5071680;28;20107;-75
2021/03/26 02:19:48;;;;;;;19.80;11.48;;;22.00;35.60;;;;;;5081103;28;20514;-75
2021/03/26 02:22:14;;;;;;;17.02;10.13;;;22.00;35.60;;;;;;5074381;28;20061;-76
2021/03/26 02:24:41;;;;;;;20.00;11.48;;;22.00;36.20;;;;;;5076395;28;20107;-76
2021/03/26 02:27:13;;;;;;;18.60;11.00;;;22.00;35.50;;;;;;5071436;28;20020;-75
2021/03/26 02:29:38;;;;;;;20.27;10.70;;;22.00;35.50;;;;;;5057338;28;20040;-76
2021/03/26 02:32:15;;;;;;;19.80;11.32;;;22.00;35.50;;;;;;5080595;28;20043;-75
2021/03/26 02:35:11;;;;;;;18.30;11.95;;;21.90;35.40;;;;;;5054832;28;20392;-75
2021/03/26 02:37:39;;;;;;;18.90;10.25;;;22.00;35.40;;;;;;5054426;28;20154;-75
2021/03/26 02:40:07;;;;;;;20.80;11.30;;;22.00;35.40;;;;;;5071421;28;20507;-75
2021/03/26 02:42:33;;;;;;;17.85;10.30;;;22.00;35.40;;;;;;5053841;28;20029;-77
2021/03/26 02:45:20;;;;;;;21.23;11.13;;;22.00;35.40;;;;;;5056270;28;20035;-74
2021/03/26 02:48:08;;;;;;;22.40;10.55;;;22.00;35.30;;;;;;5053605;28;20111;-75
2021/03/26 02:50:59;;;;;;;18.08;10.00;;;22.00;35.40;;;;;;5055749;28;20031;-75
2021/03/26 02:53:37;;;;;;;18.48;10.93;;;22.00;35.30;;;;;;5064021;28;20024;-75
2021/03/26 02:56:04;;;;;;;28.67;12.18;;;21.90;35.30;;;;;;5071927;28;20483;-77
2021/03/26 02:58:38;;;;;;;22.92;12.27;;;21.90;35.30;;;;;;5072722;28;20073;-76
2021/03/26 03:01:32;;;;;;;22.95;13.60;;;21.90;35.30;;;;;;5076580;28;20016;-77
2021/03/26 03:04:02;;;;;;;22.55;12.23;;;21.90;35.30;;;;;;5075917;28;20407;-78
2021/03/26 03:06:31;;;;;;;20.88;12.25;;;21.90;35.40;;;;;;5061368;28;20024;-78
2021/03/26 03:08:57;;;;;;;20.42;12.40;;;21.90;35.40;;;;;;5057272;28;20025;-78
2021/03/26 03:11:33;;;;;;;20.50;11.27;;;21.90;35.40;;;;;;5073550;28;20100;-78
2021/03/26 03:14:03;;;;;;;21.25;12.68;;;21.90;35.40;;;;;;5053364;28;20077;-77
2021/03/26 03:16:40;;;;;;;22.65;12.57;;;21.90;35.40;;;;;;5073053;28;20075;-77
2021/03/26 03:19:12;;;;;;;22.70;12.75;;;21.90;35.40;;;;;;5055070;28;20021;-75
2021/03/26 03:21:54;;;;;;;24.27;13.30;;;21.80;35.40;;;;;;5077930;28;20051;-75
2021/03/26 03:24:29;;;;;;;20.27;12.05;;;21.80;35.50;;;;;;5052714;28;20012;-75
2021/03/26 03:27:52;;;;;;;21.85;12.65;;;21.80;35.40;;;;;;5062082;28;20518;-76
2021/03/26 03:30:27;;;;;;;22.05;12.15;;;21.80;35.40;;;;;;4977197;28;20062;-76
2021/03/26 03:33:01;;;;;;;21.42;11.75;;;21.80;35.50;;;;;;4987810;28;20113;-75
2021/03/26 03:35:37;;;;;;;20.73;10.70;;;21.80;35.40;;;;;;4976419;28;20089;-74
2021/03/26 03:38:11;;;;;;;20.45;10.35;;;21.80;35.50;;;;;;4957422;28;20031;-74
2021/03/26 03:40:51;;;;;;;23.48;9.73;;;21.80;35.60;;;;;;4976687;28;20057;-75
2021/03/26 03:43:41;;;;;;;20.70;11.52;;;21.80;35.60;;;;;;4955903;28;20113;-75
2021/03/26 03:46:13;;;;;;;21.25;11.65;;;21.70;35.50;;;;;;4972786;28;20109;-76
2021/03/26 03:48:53;;;;;;;17.45;10.48;;;21.70;35.50;;;;;;4988206;28;20514;-76
2021/03/26 03:51:25;;;;;;;24.15;12.57;;;21.70;35.60;;;;;;4956125;28;20109;-75
2021/03/26 03:54:12;;;;;;;20.40;11.50;;;21.70;35.60;;;;;;4992926;28;20065;-77
2021/03/26 03:56:43;;;;;;;21.08;12.27;;;21.70;35.60;;;;;;4984030;28;20045;-76
2021/03/26 03:59:50;;;;;;;19.10;10.23;;;21.70;35.60;;;;;;4977775;28;20516;-75
2021/03/26 04:02:24;;;;;;;25.27;13.43;;;21.70;35.60;;;;;;5015107;28;20078;-75
2021/03/26 04:05:16;;;;;;;21.45;11.88;;;21.60;35.60;;;;;;4997743;28;20032;-75
2021/03/26 04:07:56;;;;;;;21.38;10.23;;;21.60;35.60;;;;;;5015102;28;20045;-75
2021/03/26 04:10:22;;;;;;;20.25;10.55;;;21.60;35.60;;;;;;4999982;28;20033;-74
2021/03/26 04:16:10;;;;;;;19.05;11.15;;;21.60;35.60;;;;;;5010895;28;20104;-75
2021/03/26 04:18:39;;;;;;;19.75;10.05;;;21.60;35.60;;;;;;4995857;28;20033;-74
2021/03/26 04:21:13;;;;;;;17.92;8.88;;;21.60;35.70;;;;;;5002573;28;20078;-74
2021/03/26 04:24:04;;;;;;;20.65;12.35;;;21.60;35.70;;;;;;4997073;28;20406;-75
2021/03/26 04:26:35;;;;;;;23.98;12.77;;;21.60;35.60;;;;;;4985320;28;20042;-73
2021/03/26 04:29:22;;;;;;;17.42;8.80;;;21.50;35.60;;;;;;5000785;28;20207;-75
2021/03/26 04:31:52;;;;;;;23.90;13.52;;;21.50;35.50;;;;;;4982330;28;20038;-74
2021/03/26 04:34:18;;;;;;;21.58;13.30;;;21.50;35.50;;;;;;4974697;28;20034;-74
2021/03/26 04:36:48;;;;;;;25.77;12.85;;;21.50;35.50;;;;;;5000005;28;20433;-74
2021/03/26 04:39:17;;;;;;;23.08;12.70;;;21.50;35.40;;;;;;5024760;28;20108;-74
2021/03/26 04:42:05;;;;;;;21.30;10.88;;;21.50;35.40;;;;;;5059127;28;20035;-75
2021/03/26 04:44:43;;;;;;;21.85;12.15;;;21.50;35.40;;;;;;5054677;28;20043;-75
2021/03/26 04:47:36;;;;;;;22.75;12.55;;;21.50;35.40;;;;;;5034586;28;20063;-73
2021/03/26 04:50:21;;;;;;;22.13;10.23;;;21.50;35.30;;;;;;5043818;28;20051;-75
2021/03/26 04:52:54;;;;;;;20.70;12.02;;;21.50;35.30;;;;;;5025619;28;20029;-75
2021/03/26 04:55:22;;;;;;;24.02;13.40;;;21.50;36.00;;;;;;5037883;28;20028;-75
2021/03/26 04:57:59;;;;;;;20.27;11.55;;;21.50;35.40;;;;;;5052451;28;20045;-74
2021/03/26 05:00:49;;;;;;;11.90;6.35;;;21.50;35.40;;;;;;5054298;28;20555;-75
2021/03/26 05:03:29;;;;;;;1.50;1.13;;;21.50;35.30;;;;;;5034806;28;20123;-75
2021/03/26 05:06:08;;;;;;;2.15;1.52;;;21.60;36.00;;;;;;5052740;28;20492;-75
2021/03/26 05:08:34;;;;;;;2.28;1.10;;;21.50;35.40;;;;;;5058753;28;20060;-75
2021/03/26 05:11:00;;;;;;;1.38;0.98;;;21.50;35.40;;;;;;5055767;28;20118;-75
2021/03/26 05:13:29;;;;;;;1.08;1.00;;;21.60;35.40;;;;;;5035006;28;20044;-75
2021/03/26 05:16:00;;;;;;;6.43;2.05;;;21.60;35.40;;;;;;5028288;28;20025;-75
2021/03/26 05:18:47;;;;;;;0.63;0.63;;;21.60;35.40;;;;;;5046427;28;20399;-76
2021/03/26 05:21:27;;;;;;;1.27;0.65;;;21.70;35.30;;;;;;5039464;28;20017;-77
2021/03/26 05:24:15;;;;;;;2.55;0.57;;;21.70;35.30;;;;;;5048141;28;20033;-77
2021/03/26 05:26:41;;;;;;;0.90;0.63;;;21.70;35.20;;;;;;5054300;28;20028;-76
2021/03/26 05:29:08;;;;;;;1.58;1.05;;;21.80;35.20;;;;;;5054699;28;20035;-77
2021/03/26 05:32:12;;;;;;;2.28;1.15;;;21.90;35.20;;;;;;5055116;28;20545;-77
2021/03/26 05:34:56;;;;;;;2.25;1.00;;;21.90;35.20;;;;;;4972181;28;20043;-76
2021/03/26 05:37:31;;;;;;;2.67;0.90;;;21.90;35.10;;;;;;4972224;28;20031;-76
2021/03/26 05:40:21;;;;;;;1.03;0.93;;;22.00;35.10;;;;;;4956615;28;20039;-76
2021/03/26 05:43:14;;;;;;;1.85;1.38;;;22.00;35.20;;;;;;4973703;28;20034;-76
2021/03/26 05:45:42;;;;;;;0.20;0.20;;;22.00;35.10;;;;;;4955583;28;20438;-76
2021/03/26 05:48:24;;;;;;;1.27;0.90;;;22.00;35.00;;;;;;4955802;28;20058;-77
2021/03/26 05:51:05;;;;;;;1.92;1.23;;;22.00;35.10;;;;;;4955980;28;20018;-76
2021/03/26 05:54:09;;;;;;;1.50;0.75;;;22.00;35.10;;;;;;4957476;28;20045;-76
2021/03/26 05:56:37;;;;;;;1.15;0.80;;;22.00;35.10;;;;;;4877507;29;20037;-76
2021/03/26 05:59:18;;;;;;;1.17;0.70;;;22.00;35.10;;;;;;4872810;29;20135;-76
2021/03/26 06:02:05;;;;;;;1.15;0.93;;;22.00;35.10;;;;;;4876252;29;20037;-77
2021/03/26 06:04:30;;;;;;;2.75;0.93;;;22.00;35.10;;;;;;4872962;29;20106;-76
2021/03/26 06:07:20;;;;;;;3.08;0.93;;;22.00;35.10;;;;;;4876624;29;20443;-77
2021/03/26 06:09:45;;;;;;;1.73;0.55;;;22.00;35.10;;;;;;4876220;29;20039;-77
2021/03/26 06:12:17;;;;;;;1.83;0.90;;;22.00;35.10;;;;;;4945321;28;20043;-77
2021/03/26 06:14:52;;;;;;;1.70;1.10;;;22.00;35.10;;;;;;4954814;28;20511;-76
2021/03/26 06:17:23;;;;;;;2.43;1.10;;;22.00;35.10;;;;;;4971020;28;20078;-76
2021/03/26 06:20:19;;;;;;;1.77;0.90;;;22.00;35.10;;;;;;4971272;28;20046;-76
2021/03/26 06:22:58;;;;;;;5.55;1.17;;;22.00;35.10;;;;;;4960460;28;20034;-76
2021/03/26 06:25:28;;;;;;;1.60;1.00;;;22.00;35.10;;;;;;4957290;28;20125;-76
2021/03/26 06:27:53;;;;;;;10.43;1.00;;;22.00;35.00;;;;;;4973866;28;20042;-77
2021/03/26 06:30:22;;;;;;;1.17;1.08;;;22.00;35.10;;;;;;4972250;28;20030;-76
2021/03/26 06:33:25;;;;;;;2.40;1.33;;;22.00;35.10;;;;;;5000733;28;20467;-76
2021/03/26 06:36:09;;;;;;;0.55;0.50;;;22.00;35.10;;;;;;5086122;28;20033;-78
2021/03/26 06:38:59;;;;;;;1.20;1.05;;;22.00;35.10;;;;;;5090593;28;20041;-76
2021/03/26 06:41:43;;;;;;;0.95;0.60;;;22.00;35.20;;;;;;5073462;28;20423;-78
2021/03/26 06:44:16;;;;;;;1.05;0.60;;;22.00;35.20;;;;;;5071498;28;20082;-75
2021/03/26 06:47:06;;;;;;;1.17;0.82;;;22.00;35.20;;;;;;5052240;28;20033;-75
2021/03/26 06:49:55;;;;;;;2.72;0.90;;;22.00;35.20;;;;;;5070891;28;20029;-74
2021/03/26 06:52:38;;;;;;;0.52;0.52;;;22.00;35.20;;;;;;5052588;28;20025;-74
2021/03/26 06:55:46;;;;;;;0.98;0.98;;;22.00;35.20;;;;;;5070953;28;20025;-74
2021/03/26 06:58:33;;;;;;;2.38;0.93;;;22.00;35.20;;;;;;4987434;28;20046;-75
2021/03/26 07:01:31;;;;;;;2.33;1.05;;;22.00;35.10;;;;;;4989201;28;20518;-74
2021/03/26 07:04:05;;;;;;;1.13;0.77;;;22.00;35.20;;;;;;4927788;29;20118;-74
2021/03/26 07:06:49;;;;;;;0.65;0.60;;;22.00;35.90;;;;;;4937015;29;20762;-74
2021/03/26 07:09:33;;;;;;;2.63;1.33;;;22.00;35.20;;;;;;4938712;29;20052;-74
2021/03/26 07:12:32;;;;;;;3.03;1.27;;;22.00;35.30;;;;;;4944963;29;20027;-74
2021/03/26 07:15:18;;;;;;;4.78;1.20;;;22.00;35.30;;;;;;4941898;29;20126;-74
2021/03/26 07:18:25;;;;;;;1.45;0.90;;;22.10;35.30;;;;;;4918769;29;20091;-74
2021/03/26 07:21:06;;;;;;;1.23;0.40;;;22.10;35.30;;;;;;4933098;29;20891;-74
2021/03/26 07:23:46;;;;;;;1.08;0.57;;;22.10;35.30;;;;;;4949552;29;20053;-74
2021/03/26 07:26:24;;;;;;;2.13;0.82;;;22.10;35.30;;;;;;4933789;29;20039;-75
2021/03/26 07:29:30;;;;;;;1.73;1.35;;;22.10;35.40;;;;;;4948107;29;20044;-75
2021/03/26 07:32:02;;;;;;;1.80;0.75;;;22.10;35.30;;;;;;4930491;29;20415;-74
2021/03/26 07:34:43;;;;;;;2.63;1.17;;;22.10;35.20;;;;;;4919992;28;20651;-74
2021/03/26 07:37:31;;;;;;;0.85;0.73;;;22.10;35.30;;;;;;4971385;28;20486;-74
2021/03/26 07:40:31;;;;;;;2.00;1.45;;;22.20;35.30;;;;;;4989990;28;20046;-74
2021/03/26 07:43:35;;;;;;;1.13;1.02;;;22.30;35.20;;;;;;5086951;28;20398;-74
2021/03/26 07:46:42;;;;;;;1.67;0.95;;;22.30;35.30;;;;;;5004985;28;20497;-75
2021/03/26 07:49:38;;;;;;;1.08;0.73;;;22.30;35.20;;;;;;5004250;28;20043;-75
2021/03/26 07:52:20;;;;;;;3.60;1.27;;;22.30;35.10;;;;;;4989179;28;20025;-75
2021/03/26 07:54:57;;;;;;;1.38;0.57;;;22.40;34.90;;;;;;4992376;28;20041;-74
2021/03/26 07:57:26;;;;;;;2.28;0.93;;;22.40;34.80;;;;;;5001053;28;20079;-75
2021/03/26 07:59:57;;;;;;;1.05;1.00;;;22.50;34.70;;;;;;4996200;28;20450;-74
2021/03/26 08:02:48;;;;;;;8.25;1.10;;;22.50;34.70;;;;;;4975004;28;20022;-76
2021/03/26 08:05:30;;;;;;;2.97;1.17;;;22.50;34.80;;;;;;4966388;28;20043;-74
2021/03/26 08:08:32;;;;;;;1.67;1.10;;;22.60;34.60;;;;;;5006819;28;20068;-77
2021/03/26 08:11:29;;;;;;;4.13;1.23;;;22.60;34.60;;;;;;5005954;28;20120;-76
2021/03/26 08:14:02;;;;;;;1.13;0.73;;;22.60;34.60;;;;;;4924493;29;20046;-75
2021/03/26 08:17:02;;;;;;;1.15;0.80;;;22.60;34.50;;;;;;4912281;29;20131;-76
2021/03/26 08:20:10;;;;;;;1.75;1.13;;;22.70;34.30;;;;;;4938956;28;20070;-76
2021/03/26 08:22:42;;;;;;;3.55;0.82;;;22.70;34.20;;;;;;4929633;29;20145;-73
2021/03/26 08:25:26;;;;;;;1.27;0.88;;;22.80;34.00;;;;;;4916136;29;20063;-75
2021/03/26 08:28:06;;;;;;;1.58;1.17;;;22.80;34.00;;;;;;4928430;29;20056;-75
2021/03/26 08:30:40;;;;;;;6.50;0.75;;;22.80;34.00;;;;;;4919076;29;20059;-75
2021/03/26 08:33:47;;;;;;;1.45;1.08;;;22.80;34.00;;;;;;4942666;29;20046;-75
2021/03/26 08:36:27;;;;;;;4.40;1.58;;;22.80;34.00;;;;;;4893977;29;20136;-75
2021/03/26 08:39:25;;;;;;;5.10;1.73;;;22.90;33.80;;;;;;4892271;29;20141;-75
2021/03/26 08:42:06;;;;;;;2.45;1.52;;;22.80;33.80;;;;;;4870691;29;20064;-75
2021/03/26 08:44:32;;;;;;;0.50;0.28;;;22.80;33.70;;;;;;4853989;29;20053;-76
2021/03/26 08:46:58;;;;;;;1.83;0.93;;;22.80;33.90;;;;;;4877341;29;20592;-75
2021/03/26 08:49:24;;;;;;;3.65;1.17;;;22.80;33.70;;;;;;4877094;29;20112;-76
2021/03/26 08:52:16;;;;;;;1.40;0.77;;;22.90;33.70;;;;;;4897305;29;20436;-76
2021/03/26 08:54:59;;;;;;;2.13;1.02;;;22.90;33.70;;;;;;4866448;29;20053;-75
2021/03/26 08:57:48;;;;;;;0.57;0.30;;;22.90;33.70;;;;;;4876183;29;20128;-75
2021/03/26 09:00:33;;;;;;;0.30;0.30;;;22.90;33.70;;;;;;4891760;29;20458;-75
2021/03/26 09:03:25;;;;;;;0.45;0.43;;;22.90;33.70;;;;;;4895510;29;20025;-76
2021/03/26 09:09:33;;;;;;;8.65;2.35;;;23.00;33.60;;;;;;4897304;29;20034;-73
2021/03/26 09:12:17;;;;;;;;;;;22.90;33.70;;;;;;4879777;29;20032;-73
2021/03/26 09:14:57;;;;;;;3.97;1.40;;;22.90;33.60;;;;;;4882503;29;19919;-74
2021/03/26 09:17:42;;;;;;;1.40;0.82;;;22.90;33.70;;;;;;4876677;28;20050;-73
2021/03/26 09:20:32;;;;;;;3.20;1.70;;;22.90;33.80;;;;;;4957243;28;20035;-72
2021/03/26 09:23:02;;;;;;;5.28;1.30;;;22.90;33.90;;;;;;4963483;28;20415;-72
2021/03/26 09:25:58;;;;;;;2.63;0.93;;;22.90;34.10;;;;;;4979421;28;20038;-72
2021/03/26 09:28:29;;;;;;;0.68;0.32;;;23.00;34.30;;;;;;4954877;28;20037;-71
2021/03/26 09:31:24;;;;;;;6.18;0.57;;;23.00;34.50;;;;;;4974912;28;20520;-72
2021/03/26 09:33:59;;;;;;;6.45;1.40;;;23.00;34.50;;;;;;5040972;28;20036;-72
2021/03/26 09:36:26;;;;;;;;;;;22.90;34.80;;;;;;5041339;28;20056;-72
2021/03/26 09:39:01;;;;;;;8.25;1.30;;;23.00;35.20;;;;;;5058902;28;19912;-71
2021/03/26 09:41:43;;;;;;;2.30;0.60;;;22.90;35.50;;;;;;5061779;28;20047;-72
2021/03/26 09:44:37;;;;;;;3.45;0.68;;;22.90;35.50;;;;;;5069343;28;20603;-74
2021/03/26 09:47:12;;;;;;;3.08;1.33;;;22.90;36.40;;;;;;5089961;28;20099;-73
2021/03/26 09:49:50;;;;;;;45.55;4.03;;;22.90;35.60;;;;;;5088774;28;20048;-75
2021/03/26 09:52:29;;;;;;;32.42;2.80;;;22.70;36.00;;;;;;5088269;28;20039;-73
2021/03/26 09:55:02;;;;;;;0.68;0.50;;;22.60;38.80;;;;;;5083799;28;20500;-70
2021/03/26 09:58:18;;;;;;;2.78;1.10;;;22.60;37.80;;;;;;5084375;28;20036;-75
2021/03/26 10:00:54;;;;;;;1.40;1.02;;;22.40;35.30;;;;;;5090949;28;20043;-71
2021/03/26 10:03:44;;;;;;;1.50;0.75;;;22.40;36.00;;;;;;5066709;28;20021;-75
2021/03/26 10:06:16;;;;;;;6.05;1.35;;;22.30;37.50;;;;;;5092518;28;20020;-72
2021/03/26 10:14:53;;;;;;;4.13;1.80;;;21.10;35.00;;;;;;5085762;28;20078;-71
2021/03/26 10:17:41;;;;;;;2.03;0.60;;;20.60;36.40;;;;;;5099970;28;20094;-75
2021/03/26 10:20:18;;;;;;;2.92;1.30;;;20.60;37.10;;;;;;5085809;28;20066;-73
2021/03/26 10:22:48;;;;;;;5.15;1.13;;;20.80;37.50;;;;;;5083518;28;20059;-73
2021/03/26 10:25:47;;;;;;;2.45;1.40;;;21.00;45.20;;;;;;5090577;28;20039;-75
2021/03/26 10:28:17;;;;;;;2.50;1.25;;;21.50;46.50;;;;;;5008984;28;20568;-71
2021/03/26 10:30:44;;;;;;;9.35;2.15;;;21.70;41.90;;;;;;4983905;28;20034;-68
2021/03/26 10:33:12;;;;;;;9.07;1.52;;;22.00;40.80;;;;;;5007864;28;20112;-68
2021/03/26 10:35:39;;;;;;;5.07;0.63;;;22.20;38.90;;;;;;4999384;28;20021;-68
2021/03/26 10:38:09;;;;;;;2.20;0.70;;;22.30;37.50;;;;;;5010910;28;20029;-68
2021/03/26 10:40:56;;;;;;;2.28;0.30;;;22.40;36.30;;;;;;5006445;28;20045;-68
2021/03/26 10:43:27;;;;;;;2.03;0.68;;;22.50;35.40;;;;;;4992688;28;20038;-68
2021/03/26 10:46:09;;;;;;;0.40;0.30;;;22.60;35.00;;;;;;4983430;28;20085;-68
2021/03/26 10:51:56;;;;;;;0.22;0.20;;;22.80;34.60;;;;;;5018025;28;20525;-68
2021/03/26 10:54:42;;;;;;;3.00;0.57;;;22.90;34.00;;;;;;4979270;28;20074;-68
2021/03/26 10:57:31;;;;;;;1.02;0.28;;;22.90;34.20;;;;;;5000700;28;20039;-68
2021/03/26 11:00:00;;;;;;;5.32;0.47;;;23.00;34.20;;;;;;5001776;28;20033;-68
2021/03/26 11:02:30;;;;;;;2.05;0.30;;;23.00;34.20;;;;;;5000438;28;20448;-68
2021/03/26 11:05:37;;;;;;;1.55;0.40;;;23.10;34.20;;;;;;5013735;28;20095;-68
2021/03/26 11:08:03;;;;;;;0.85;0.45;;;23.20;33.80;;;;;;5028262;28;20093;-68
2021/03/26 11:10:36;;;;;;;2.05;0.28;;;23.20;33.30;;;;;;5027945;28;20049;-69
2021/03/26 11:13:38;;;;;;;1.67;0.40;;;23.20;33.40;;;;;;5008742;28;20460;-68
2021/03/26 11:16:12;;;;;;;0.90;0.40;;;23.20;33.00;;;;;;5028729;28;20049;-68
2021/03/26 11:18:40;;;;;;;0.20;0.20;;;23.20;32.50;;;;;;5011971;28;20029;-68
2021/03/26 11:21:13;;;;;;;0.35;0.30;;;23.20;32.40;;;;;;5020548;28;20036;-68
2021/03/26 11:23:39;;;;;;;0.20;0.20;;;23.20;32.60;;;;;;5012990;28;20128;-68
2021/03/26 11:26:04;;;;;;;2.80;0.28;;;23.30;32.90;;;;;;5009702;28;20589;-68
2021/03/26 11:28:39;;;;;;;0.52;0.38;;;23.30;33.00;;;;;;5027689;28;20052;-68
2021/03/26 11:31:29;;;;;;;0.50;0.50;;;23.30;33.00;;;;;;5013819;28;20029;-68
2021/03/26 11:33:57;;;;;;;1.10;0.30;;;23.30;32.50;;;;;;5007521;28;20608;-67
2021/03/26 11:36:32;;;;;;;1.33;0.38;;;23.20;32.20;;;;;;5025500;28;20475;-68
2021/03/26 11:39:17;;;;;;;1.17;0.60;;;23.20;31.90;;;;;;5012721;28;20075;-68
2021/03/26 11:42:01;;;;;;;6.63;0.57;;;23.20;31.80;;;;;;5030964;28;20134;-68
2021/03/26 11:44:31;;;;;;;0.20;0.20;;;23.10;31.40;;;;;;5045910;28;20780;-68
2021/03/26 11:46:58;;;;;;;0.75;0.50;;;23.10;31.70;;;;;;5059104;28;20074;-67
2021/03/26 11:49:36;;;;;;;0.45;0.40;;;23.10;32.00;;;;;;5069729;28;20024;-68
2021/03/26 11:52:21;;;;;;;0.28;0.28;;;23.10;32.10;;;;;;5062212;28;20106;-68
2021/03/26 11:55:08;;;;;;;0.28;0.10;;;23.20;32.20;;;;;;5063994;28;20092;-68
2021/03/26 11:57:38;;;;;;;0.95;0.40;;;23.20;31.90;;;;;;5069469;28;20040;-68
2021/03/26 12:00:20;;;;;;;0.90;0.30;;;23.30;31.90;;;;;;5056185;28;20484;-68
2021/03/26 12:03:04;;;;;;;5.00;0.20;;;23.30;32.20;;;;;;5072822;28;20021;-68
2021/03/26 12:05:55;;;;;;;2.50;0.50;;;23.30;31.70;;;;;;5066816;28;20033;-68
2021/03/26 12:08:26;;;;;;;2.15;0.35;;;23.40;31.90;;;;;;5073031;28;20024;-68
2021/03/26 12:11:00;;;;;;;0.85;0.70;;;23.40;31.50;;;;;;5065415;28;20112;-68
2021/03/26 12:13:36;;;;;;;1.98;0.57;;;23.40;31.20;;;;;;5065905;28;20104;-68
2021/03/26 12:16:23;;;;;;;1.25;0.70;;;23.40;30.70;;;;;;5061772;28;20511;-68
2021/03/26 12:18:50;;;;;;;;;;;23.30;30.60;;;;;;5067082;28;20031;-68
2021/03/26 12:21:49;;;;;;;1.85;0.45;;;23.30;31.00;;;;;;5070688;28;19908;-68
2021/03/26 12:24:20;;;;;;;1.38;0.17;;;23.40;31.10;;;;;;5063449;28;20043;-68
2021/03/26 12:27:04;;;;;;;0.82;0.40;;;23.40;31.20;;;;;;5080664;28;20020;-67
2021/03/26 12:29:42;;;;;;;0.20;0.20;;;23.40;31.60;;;;;;5067016;28;20103;-68
2021/03/26 12:32:32;;;;;;;0.25;0.25;;;23.50;31.60;;;;;;5068251;28;20039;-67
2021/03/26 12:35:29;;;;;;;0.65;0.20;;;23.50;31.50;;;;;;5066395;28;20385;-67
2021/03/26 12:38:19;;;;;;;0.45;0.40;;;23.50;31.60;;;;;;5068114;28;20043;-69
2021/03/26 12:40:56;;;;;;;2.63;0.60;;;23.60;31.80;;;;;;5077079;28;20044;-69
2021/03/26 12:43:30;;;;;;;0.68;0.25;;;23.60;31.70;;;;;;5089969;28;20122;-69
2021/03/26 12:46:19;;;;;;;1.52;0.20;;;23.60;31.60;;;;;;5073567;28;20028;-69
2021/03/26 12:48:54;;;;;;;4.82;0.45;;;23.70;31.50;;;;;;5082849;28;20031;-69
2021/03/26 12:51:25;;;;;;;1.30;0.63;;;23.70;31.00;;;;;;5090880;28;21886;-69
2021/03/26 12:54:20;;;;;;;2.92;0.22;;;23.70;30.90;;;;;;5072688;28;20070;-69
2021/03/26 12:56:54;;;;;;;0.50;0.10;;;23.70;31.00;;;;;;5098422;28;20376;-69
2021/03/26 12:59:24;;;;;;;0.10;0.10;;;23.80;31.00;;;;;;5070386;28;20071;-69
2021/03/26 13:01:53;;;;;;;1.08;0.50;;;23.80;30.60;;;;;;5056493;28;20054;-69
2021/03/26 13:04:34;;;;;;;0.25;0.20;;;23.80;30.90;;;;;;5072817;28;20107;-69
2021/03/26 13:07:02;;;;;;;1.10;0.30;;;23.80;31.10;;;;;;5075433;28;20019;-69
2021/03/26 13:09:40;;;;;;;0.52;0.25;;;23.80;30.80;;;;;;5058663;28;20047;-69
2021/03/26 13:12:12;;;;;;;0.35;0.17;;;23.80;30.70;;;;;;5054378;28;20032;-70
2021/03/26 13:14:57;;;;;;;1.05;0.30;;;23.80;30.40;;;;;;5035479;28;20431;-69
2021/03/26 13:17:27;;;;;;;0.13;0.07;;;23.90;30.80;;;;;;5060047;28;20063;-69
2021/03/26 13:20:11;;;;;;;0.40;0.30;;;24.00;31.00;;;;;;5059131;28;20328;-70
2021/03/26 13:22:46;;;;;;;0.98;0.10;;;24.00;30.70;;;;;;5065452;28;20102;-69
2021/03/26 13:25:22;;;;;;;0.90;0.10;;;24.10;30.10;;;;;;5071005;28;20102;-69
2021/03/26 13:27:57;;;;;;;0.80;0.10;;;24.10;30.40;;;;;;5088066;28;20503;-69
2021/03/26 13:30:27;;;;;;;0.23;0.23;;;24.10;30.00;;;;;;5089600;28;20052;-70
2021/03/26 13:32:58;;;;;;;1.27;0.30;;;24.20;30.00;;;;;;5071369;28;20028;-70
2021/03/26 13:35:33;;;;;;;0.25;0.25;;;24.20;30.30;;;;;;5084931;28;20024;-70
2021/03/26 13:38:15;;;;;;;0.33;0.20;;;24.20;30.40;;;;;;5068094;28;20023;-70
2021/03/26 13:40:42;;;;;;;0.50;0.50;;;24.30;31.20;;;;;;5071195;28;20036;-70
2021/03/26 13:43:19;;;;;;;2.55;0.70;;;24.30;30.60;;;;;;5071137;28;20016;-70
2021/03/26 13:46:20;;;;;;;0.68;0.17;;;24.30;30.50;;;;;;5079155;28;20051;-70
2021/03/26 13:48:46;;;;;;;0.55;0.13;;;24.30;30.60;;;;;;4977198;28;20081;-69
2021/03/26 13:51:15;;;;;;;0.47;0.47;;;24.30;30.70;;;;;;4994453;28;20030;-70